Time;durP1;ratioP1;P1;durP2;ratioP2;P2;SDS_P1;SDS_P2;PMS_P1;PMS_P2;Temp;Humidity;BMP_temperature;BMP_pressure;BME280_temperature;BME280_humidity;BME280_pressure;Samples;Min_cycle;Max_cycle;Signal;HPM_P1;HPM_P2
2023/05/13 06:04:05;;;;;;;10.07;6.47;;;;;;;;;;6169854;23;20028;-83
2023/05/13 06:06:32;;;;;;;9.93;5.25;;;;;;;;;;6154306;23;20013;-84
2023/05/13 06:08:58;;;;;;;7.40;3.40;;;;;;;;;;6157707;23;20033;-84
2023/05/13 06:11:24;;;;;;;6.03;3.10;;;;;;;;;;6157530;23;20044;-83
2023/05/13 06:13:50;;;;;;;5.78;2.47;;;;;;;;;;6158114;23;20036;-83
2023/05/13 06:16:16;;;;;;;10.98;2.88;;;;;;;;;;6158213;23;20365;-84
2023/05/13 06:18:42;;;;;;;10.70;3.58;;;;;;;;;;6158227;23;20013;-83
2023/05/13 06:21:08;;;;;;;9.00;3.72;;;;;;;;;;6185522;23;20099;-84
2023/05/13 06:23:34;;;;;;;7.32;3.10;;;;;;;;;;6155496;23;20024;-82
2023/05/13 06:26:00;;;;;;;7.80;2.97;;;;;;;;;;6181715;23;20001;-83
2023/05/13 06:28:26;;;;;;;6.80;3.05;;;;;;;;;;6154392;23;20023;-83
2023/05/13 06:30:53;;;;;;;7.93;3.88;;;;;;;;;;6156252;23;20001;-82
2023/05/13 06:33:19;;;;;;;5.45;3.40;;;;;;;;;;6181786;23;20012;-83
2023/05/13 06:35:48;;;;;;;8.48;3.10;;;;;;;;;;6155267;23;20401;-84
2023/05/13 06:38:16;;;;;;;6.45;2.55;;;;;;;;;;6154598;23;20021;-83
2023/05/13 06:40:42;;;;;;;5.10;2.47;;;;;;;;;;6155295;23;20004;-83
2023/05/13 06:43:09;;;;;;;5.75;2.83;;;;;;;;;;6154705;23;20023;-82
2023/05/13 06:45:35;;;;;;;4.40;2.38;;;;;;;;;;6154444;23;20091;-84
2023/05/13 06:48:01;;;;;;;7.18;3.13;;;;;;;;;;6181032;23;20013;-83
2023/05/13 06:50:27;;;;;;;7.93;2.72;;;;;;;;;;6154672;23;20313;-83
2023/05/13 06:52:53;;;;;;;7.65;3.13;;;;;;;;;;6154514;23;20020;-82
2023/05/13 06:55:19;;;;;;;6.00;2.72;;;;;;;;;;6154391;23;20047;-84
2023/05/13 06:57:46;;;;;;;5.90;3.08;;;;;;;;;;6154539;23;20021;-83
2023/05/13 07:00:12;;;;;;;5.78;2.35;;;;;;;;;;6154016;23;20008;-83
2023/05/13 07:02:38;;;;;;;10.57;3.35;;;;;;;;;;6181666;23;20819;-83
2023/05/13 07:05:04;;;;;;;7.65;2.90;;;;;;;;;;6180937;23;20037;-83
2023/05/13 07:07:30;;;;;;;8.45;3.03;;;;;;;;;;6181338;23;20013;-83
2023/05/13 07:09:56;;;;;;;8.05;3.53;;;;;;;;;;6180649;23;20064;-83
2023/05/13 07:12:22;;;;;;;7.50;3.00;;;;;;;;;;6154412;23;20032;-83
2023/05/13 07:14:48;;;;;;;8.63;2.75;;;;;;;;;;6155071;23;20012;-86
2023/05/13 07:17:16;;;;;;;7.53;3.38;;;;;;;;;;6129963;23;20025;-85
2023/05/13 07:22:31;;;;;;;5.43;2.50;;;;;;;;;;6157127;23;20037;-86
2023/05/13 07:24:58;;;;;;;5.32;1.90;;;;;;;;;;6151936;23;20013;-86
2023/05/13 07:27:24;;;;;;;4.90;1.83;;;;;;;;;;6150757;23;20010;-83
2023/05/13 07:29:50;;;;;;;11.18;1.63;;;;;;;;;;6152604;23;20791;-85
2023/05/13 07:32:16;;;;;;;4.03;1.58;;;;;;;;;;6151535;23;20426;-87
2023/05/13 07:34:42;;;;;;;6.20;1.60;;;;;;;;;;6153005;23;20076;-88
2023/05/13 07:37:08;;;;;;;2.45;1.23;;;;;;;;;;6151094;23;20014;-83
2023/05/13 07:39:35;;;;;;;4.88;1.30;;;;;;;;;;6153548;23;20032;-82
2023/05/13 08:05:36;;;;;;;4.78;1.70;;;;;;;;;;6186333;23;20104;-85
2023/05/13 08:11:30;;;;;;;;;;;;;;;;;;;;;
2023/05/13 08:29:35;;;;;;;6.10;2.25;;;;;;;;;;6033375;23;20019;-84
2023/05/13 08:32:19;;;;;;;6.00;1.90;;;;;;;;;;6142622;23;20017;-85
2023/05/13 08:35:07;;;;;;;;;;;;;;;;;;;;;
2023/05/13 08:37:33;;;;;;;3.22;1.98;;;;;;;;;;6181913;23;20131;-85
2023/05/13 08:45:11;;;;;;;7.20;1.70;;;;;;;;;;6169250;23;20087;-83
